Airfield :
LOGIN :

Register | Disclaimer

   EN    FR    IT 

 










Legend :    VFR   Marginal VFR   IFR   Intensive IFR   Very Intensive IFR
Visi :
Ceiling :
>= 8 km
>= 3000ft
5 to 8 km
1000 to 3000 ft
1500m to 5 km
500 to 1000 ft
800 to 1500m
200 to 500 ft
< 800m
< 200 ft
Symbols :   Thunderstorms  Fog  Heavy snow  Heavy precipitations  Wind > 20 kt
SIGMETs :     Misc.  Thunderstorms  Icing  Turbulence  Mountain Waves  Volcanic Ashes






- Airport Elevation : 33 ft
- IATA code : MHZ


EGUN - RAF Mildenhall

CURRENT METAR :
  • 130409Z 26008KT 9999 -DZ BKN008 OVC019 07/06 A2864 RMK RAE0356DZB0356E04DZB09 CIG 008V019 SLP702 $

EXPIRED METARs :
  • 130301Z 24006KT 9999 -RA BKN012 OVC021 07/06 A2863 RMK CIG 009V012 SLP699 $
  • 130156Z 21005KT 9999 BKN044 07/06 A2862 RMK RAB34E45DZB45E46 SLP695 P0000 T00660057 .

TAF TAF EGUN
Valid from the 13 at 04:00 until the 14 at 10:00 UTC


130405Z 1304/1410 23010G20KT 9999 BKN010 QNH2862INS
TEMPO 1304/1306 BKN007
BECMG 1305/1306 26015G25KT 9000 -SHRA BKN010 QNH2869INS
TEMPO 1306/1310 BKN020
BECMG 1309/1310 27020G30KT 9999 NSW BKN025 510004 QNH2883INS TX07/1314Z TN03/1403Z



MET'MAP, your aeronautical weather chart ! - Copyright ORBIFLY December 2007 - Disclaimer

ORBIFLY MET'MAP TEAM :

Programming & Development : Alexandra Zaïnal
Concept & original design : Baudouin d'Aumeries
Assistance for programming : Marc-Olivier Méhu
Technical & hardware support : Manuel Goepfert

Contact : metmap@orbifly.com




SOURCES & CREDITS :

   NOAA